Johnson Creek, Wisconsin
Current Conditions -  °F | °C
As of 9:55 PM on Sunday 21 Dec 2014 (Local Time) from KRYV Reporting Station
Overcast Overcast  
Wind Chill: -3°   Ceiling: 1600
Heat Index:   Visibility: 10mi
Dew Point:   Wind: 10mph
Humidity: 89%   Direction: 160°SSE
Pressure: 29.98"   Gusts: NA
Location:  43.08°N, 88.77°W
Report Text: KRYV 220355Z AUTO 16009KT 10SM OVC016 01/00 A2998 RMK AO2 T00131003
Loading
Personal Weather Stations






























Interactive Weather Map New forecast layout! Learn more

10-Day Weather Forecast

Advertisements
Track Severe Weather on mobile